createdAt,value
2023-02-04T00:00:04.132Z,17.65
2023-02-04T00:02:30.369Z,22.08
2023-02-04T00:04:56.586Z,18.83
2023-02-04T00:07:22.889Z,21.10
2023-02-04T00:09:49.984Z,15.55
2023-02-04T00:12:16.646Z,17.08
2023-02-04T00:14:43.102Z,18.08
2023-02-04T00:17:11.439Z,18.08
2023-02-04T00:19:37.730Z,20.73
2023-02-04T00:22:04.463Z,17.60
2023-02-04T00:24:31.016Z,16.85
2023-02-04T00:26:57.429Z,22.25
2023-02-04T00:29:23.643Z,16.90
2023-02-04T00:31:50.029Z,21.75
2023-02-04T00:34:18.118Z,13.15
2023-02-04T00:36:44.664Z,17.65
2023-02-04T00:39:10.853Z,18.60
2023-02-04T00:41:37.091Z,17.33
2023-02-04T00:44:03.380Z,19.13
2023-02-04T00:46:29.644Z,16.60
2023-02-04T00:48:56.016Z,13.05
2023-02-04T00:51:22.396Z,14.75
2023-02-04T00:53:48.650Z,17.35
2023-02-04T00:56:14.849Z,15.05
2023-02-04T00:58:41.055Z,20.35
2023-02-04T01:01:07.337Z,16.60
2023-02-04T01:03:33.572Z,21.63
2023-02-04T01:05:59.789Z,16.17
2023-02-04T01:08:26.046Z,23.67
2023-02-04T01:10:52.267Z,20.38
2023-02-04T01:13:18.581Z,20.10
2023-02-04T01:15:44.976Z,18.65
2023-02-04T01:18:12.250Z,26.83
2023-02-04T01:20:38.452Z,22.73
2023-02-04T01:23:04.903Z,16.15
2023-02-04T01:25:31.095Z,16.25
2023-02-04T01:27:57.505Z,15.40
2023-02-04T01:30:23.726Z,14.60
2023-02-04T01:32:49.965Z,18.80
2023-02-04T01:35:16.273Z,17.40
2023-02-04T01:37:42.460Z,17.15
2023-02-04T01:40:09.414Z,15.82
2023-02-04T01:42:35.665Z,16.35
2023-02-04T01:45:02.367Z,19.13
2023-02-04T01:47:29.225Z,14.30
2023-02-04T01:49:55.575Z,18.92
2023-02-04T01:52:22.410Z,15.30
2023-02-04T01:54:48.817Z,17.92
2023-02-04T01:57:15.969Z,19.35
2023-02-04T01:59:45.774Z,12.25
2023-02-04T02:02:30.750Z,16.45
2023-02-04T02:04:57.031Z,14.35
2023-02-04T02:07:23.233Z,12.43
2023-02-04T02:09:49.484Z,15.57
2023-02-04T02:12:15.701Z,20.55
2023-02-04T02:14:41.920Z,17.98
2023-02-04T02:17:08.140Z,16.88
2023-02-04T02:19:36.634Z,22.77
2023-02-04T02:22:05.412Z,16.30
2023-02-04T02:24:32.839Z,15.73
2023-02-04T02:27:03.134Z,14.60
2023-02-04T02:29:29.510Z,15.40
2023-02-04T02:31:59.068Z,14.45
2023-02-04T02:34:29.081Z,17.33
2023-02-04T02:36:55.585Z,15.40
2023-02-04T02:39:22.033Z,24.50
2023-02-04T02:41:48.448Z,13.85
2023-02-04T02:44:16.257Z,16.85
2023-02-04T02:46:42.593Z,14.32
2023-02-04T02:49:16.539Z,12.93
2023-02-04T02:51:43.101Z,13.27
2023-02-04T02:54:21.258Z,16.25
2023-02-04T02:56:47.454Z,18.83
2023-02-04T02:59:14.449Z,18.00
2023-02-04T03:01:41.081Z,20.88
2023-02-04T03:04:07.496Z,16.27
2023-02-04T03:06:33.854Z,22.08
2023-02-04T03:09:00.115Z,20.58
2023-02-04T03:11:29.625Z,18.10
2023-02-04T03:13:56.870Z,14.65
2023-02-04T03:16:23.060Z,26.45
2023-02-04T03:18:49.798Z,16.83
2023-02-04T03:21:16.210Z,16.13
2023-02-04T03:23:42.549Z,18.48
2023-02-04T03:26:08.736Z,17.58
2023-02-04T03:28:39.122Z,14.65
2023-02-04T03:31:05.422Z,20.42
2023-02-04T03:33:31.767Z,12.15
2023-02-04T03:35:58.646Z,19.83
2023-02-04T03:38:24.969Z,15.40
2023-02-04T03:40:51.199Z,19.75
2023-02-04T03:43:17.446Z,17.58
2023-02-04T03:45:45.721Z,16.45
2023-02-04T03:48:12.319Z,20.17
2023-02-04T03:50:38.557Z,16.73
2023-02-04T03:53:04.788Z,14.70
2023-02-04T03:55:32.759Z,17.60
2023-02-04T03:57:59.040Z,15.70
2023-02-04T04:00:25.248Z,10.50
2023-02-04T04:02:51.551Z,17.20
2023-02-04T04:05:17.987Z,15.05
2023-02-04T04:07:45.021Z,15.25
2023-02-04T04:10:11.423Z,15.85
2023-02-04T04:12:37.749Z,14.95
2023-02-04T04:15:04.512Z,20.30
2023-02-04T04:17:30.698Z,16.23
2023-02-04T04:19:56.895Z,18.65
2023-02-04T04:22:23.097Z,15.82
2023-02-04T04:24:49.310Z,14.38
2023-02-04T04:27:15.739Z,16.10
2023-02-04T04:29:41.976Z,13.32
2023-02-04T04:32:09.601Z,18.15
2023-02-04T04:34:36.045Z,21.77
2023-02-04T04:37:02.578Z,14.07
2023-02-04T04:39:28.791Z,19.15
2023-02-04T04:41:54.982Z,13.73
2023-02-04T04:44:21.195Z,15.85
2023-02-04T04:46:47.449Z,15.93
2023-02-04T04:49:13.736Z,16.48
2023-02-04T04:51:39.930Z,20.33
2023-02-04T04:54:06.208Z,11.95
2023-02-04T04:56:32.399Z,14.43
2023-02-04T04:58:58.620Z,12.82
2023-02-04T05:01:24.835Z,15.90
2023-02-04T05:03:51.036Z,21.80
2023-02-04T05:06:17.231Z,17.50
2023-02-04T05:08:43.446Z,13.38
2023-02-04T05:11:09.641Z,17.52
2023-02-04T05:13:35.840Z,15.75
2023-02-04T05:16:02.149Z,19.00
2023-02-04T05:18:28.402Z,14.00
2023-02-04T05:20:54.581Z,13.30
2023-02-04T05:23:20.787Z,18.33
2023-02-04T05:25:46.985Z,18.15
2023-02-04T05:28:14.342Z,11.20
2023-02-04T05:30:40.570Z,16.27
2023-02-04T05:33:06.844Z,12.88
2023-02-04T05:35:33.052Z,17.35
2023-02-04T05:37:59.266Z,14.35
2023-02-04T05:40:25.485Z,18.33
2023-02-04T05:42:51.668Z,12.27
2023-02-04T05:45:18.945Z,12.40
2023-02-04T05:47:45.166Z,11.38
2023-02-04T05:50:11.437Z,17.08
2023-02-04T05:52:37.665Z,19.20
2023-02-04T05:55:04.111Z,13.90
2023-02-04T05:57:30.336Z,17.33
2023-02-04T05:59:56.589Z,18.35
2023-02-04T06:02:22.807Z,12.45
2023-02-04T06:04:49.045Z,18.63
2023-02-04T06:07:15.473Z,18.40
2023-02-04T06:09:41.725Z,16.67
2023-02-04T06:12:07.989Z,21.00
2023-02-04T06:14:34.177Z,13.48
2023-02-04T06:17:00.415Z,13.02
2023-02-04T06:19:26.696Z,14.18
2023-02-04T06:21:52.900Z,15.82
2023-02-04T06:24:19.196Z,19.08
2023-02-04T06:26:45.419Z,16.52
2023-02-04T06:29:11.677Z,19.13
2023-02-04T06:31:39.053Z,16.75
2023-02-04T06:34:05.418Z,23.52
2023-02-04T06:36:31.810Z,17.00
2023-02-04T06:38:58.129Z,15.93
2023-02-04T06:41:24.423Z,19.48
2023-02-04T06:43:50.688Z,24.30
2023-02-04T06:46:17.056Z,17.48
2023-02-04T06:48:43.273Z,13.05
2023-02-04T06:51:09.506Z,18.50
2023-02-04T06:53:35.732Z,13.55
2023-02-04T06:56:01.912Z,18.63
2023-02-04T06:58:28.165Z,16.40
2023-02-04T07:00:54.372Z,13.50
2023-02-04T07:03:20.808Z,17.00
2023-02-04T07:05:47.008Z,15.50
2023-02-04T07:08:13.382Z,16.75
2023-02-04T07:10:39.605Z,18.45
2023-02-04T07:13:06.020Z,24.67
2023-02-04T07:15:32.317Z,19.85
2023-02-04T07:17:58.654Z,19.25
2023-02-04T07:20:24.860Z,18.75
2023-02-04T07:22:51.064Z,17.08
2023-02-04T07:25:17.814Z,19.55
2023-02-04T07:27:44.745Z,23.48
2023-02-04T07:30:11.284Z,22.45
2023-02-04T07:32:37.483Z,21.05
2023-02-04T07:35:03.986Z,18.17
2023-02-04T07:37:30.250Z,20.60
2023-02-04T07:39:56.502Z,16.60
2023-02-04T07:42:22.698Z,19.10
2023-02-04T07:44:48.887Z,17.27
2023-02-04T07:47:15.155Z,20.08
2023-02-04T07:49:41.361Z,20.13
2023-02-04T07:52:07.684Z,22.42
2023-02-04T07:54:33.907Z,22.92
2023-02-04T07:57:00.104Z,18.67
2023-02-04T07:59:26.331Z,18.15
2023-02-04T08:01:52.583Z,21.67
2023-02-04T08:04:18.878Z,17.98
2023-02-04T08:06:45.081Z,18.40
2023-02-04T08:09:11.298Z,24.73
2023-02-04T08:11:37.503Z,19.60
2023-02-04T08:14:03.763Z,24.98
2023-02-04T08:16:29.959Z,16.85
2023-02-04T08:18:56.185Z,17.65
2023-02-04T08:21:22.404Z,19.42
2023-02-04T08:23:48.703Z,18.63
2023-02-04T08:26:14.909Z,21.55
2023-02-04T08:28:41.107Z,15.30
2023-02-04T08:31:11.582Z,29.15
2023-02-04T08:33:38.800Z,19.33
2023-02-04T08:36:08.417Z,27.92
2023-02-04T08:38:34.683Z,21.67
2023-02-04T08:41:01.135Z,25.58
2023-02-04T08:43:27.499Z,24.02
2023-02-04T08:45:53.688Z,25.67
2023-02-04T08:48:19.892Z,23.58
2023-02-04T08:50:46.117Z,21.88
2023-02-04T08:53:12.470Z,20.90
2023-02-04T08:55:38.705Z,22.70
2023-02-04T08:58:04.910Z,19.60
2023-02-04T09:00:31.725Z,20.60
2023-02-04T09:02:58.207Z,19.45
2023-02-04T09:05:24.527Z,20.10
2023-02-04T09:07:50.794Z,24.67
2023-02-04T09:10:17.184Z,21.73
2023-02-04T09:12:43.423Z,20.58
2023-02-04T09:15:10.321Z,23.23
2023-02-04T09:17:37.225Z,20.15
2023-02-04T09:20:03.871Z,15.55
2023-02-04T09:22:30.130Z,19.33
2023-02-04T09:24:56.400Z,22.63
2023-02-04T09:27:22.676Z,22.73
2023-02-04T09:29:48.931Z,24.73
2023-02-04T09:32:15.212Z,24.33
2023-02-04T09:34:41.458Z,23.58
2023-02-04T09:37:07.692Z,24.60
2023-02-04T09:39:33.892Z,25.98
2023-02-04T09:42:00.173Z,20.67
2023-02-04T09:44:27.774Z,18.10
2023-02-04T09:46:55.697Z,22.70
2023-02-04T09:49:22.433Z,24.98
2023-02-04T09:51:49.190Z,33.97
2023-02-04T09:54:19.581Z,23.65
2023-02-04T09:56:45.878Z,26.23
2023-02-04T09:59:20.110Z,25.90
2023-02-04T10:02:06.644Z,21.35
2023-02-04T10:04:32.894Z,23.80
2023-02-04T10:06:59.198Z,23.10
2023-02-04T10:09:25.525Z,26.73
2023-02-04T10:11:51.785Z,23.13
2023-02-04T10:14:22.798Z,31.02
2023-02-04T10:16:54.572Z,30.38
2023-02-04T10:19:20.860Z,25.23
2023-02-04T10:21:47.520Z,21.95
2023-02-04T10:24:17.561Z,24.42
2023-02-04T10:26:43.956Z,31.52
2023-02-04T10:29:18.252Z,23.27
2023-02-04T10:31:45.975Z,27.02
2023-02-04T10:34:18.638Z,27.48
2023-02-04T10:36:46.657Z,33.10
2023-02-04T10:39:22.568Z,27.67
2023-02-04T10:41:51.780Z,29.05
2023-02-04T10:44:19.603Z,27.88
2023-02-04T10:46:45.860Z,26.20
2023-02-04T10:49:22.950Z,33.45
2023-02-04T10:51:49.785Z,31.63
2023-02-04T10:54:31.027Z,31.63
2023-02-04T10:57:17.542Z,28.45
2023-02-04T10:59:44.402Z,36.72
2023-02-04T11:02:29.388Z,33.00
2023-02-04T11:04:55.625Z,32.08
2023-02-04T11:07:22.902Z,27.88
2023-02-04T11:09:49.260Z,33.03
2023-02-04T11:12:22.267Z,32.05
2023-02-04T11:14:55.747Z,31.58
2023-02-04T11:17:31.260Z,33.45
2023-02-04T11:19:57.836Z,34.35
2023-02-04T11:22:35.730Z,35.53
2023-02-04T11:25:01.990Z,29.65
2023-02-04T11:27:39.376Z,28.70
2023-02-04T11:30:07.011Z,37.20
2023-02-04T11:32:38.226Z,31.90
2023-02-04T11:35:10.830Z,37.33
2023-02-04T11:37:38.552Z,28.35
2023-02-04T11:40:22.391Z,31.67
2023-02-04T11:42:49.260Z,26.92
2023-02-04T11:45:17.645Z,27.95
2023-02-04T11:47:44.247Z,29.45
2023-02-04T11:50:22.214Z,29.08
2023-02-04T11:52:48.453Z,28.60
2023-02-04T11:55:14.923Z,31.70
2023-02-04T11:57:42.107Z,29.23
2023-02-04T12:00:18.967Z,24.90
2023-02-04T12:02:59.284Z,32.83
2023-02-04T12:05:35.962Z,34.72
2023-02-04T12:08:11.666Z,25.45
2023-02-04T12:10:38.076Z,34.38
2023-02-04T12:13:12.091Z,26.88
2023-02-04T12:15:38.639Z,38.05
2023-02-04T12:18:09.110Z,26.05
2023-02-04T12:20:35.972Z,33.22
2023-02-04T12:23:02.257Z,31.13
2023-02-04T12:25:28.617Z,28.85
2023-02-04T12:27:58.224Z,26.80
2023-02-04T12:30:26.008Z,24.70
2023-02-04T12:32:52.371Z,29.38
2023-02-04T12:35:21.183Z,26.70
2023-02-04T12:37:47.397Z,22.77
2023-02-04T12:40:17.488Z,22.10
2023-02-04T12:42:44.098Z,28.90
2023-02-04T12:45:11.547Z,24.77
2023-02-04T12:47:39.051Z,22.08
2023-02-04T12:50:06.194Z,23.60
2023-02-04T12:52:32.426Z,18.42
2023-02-04T12:55:00.167Z,23.67
2023-02-04T12:57:26.722Z,27.35
2023-02-04T12:59:53.112Z,23.88
2023-02-04T13:02:19.361Z,23.95
2023-02-04T13:04:45.773Z,17.75
2023-02-04T13:07:12.032Z,23.73
2023-02-04T13:09:38.284Z,20.98
2023-02-04T13:12:04.542Z,25.98
2023-02-04T13:14:32.436Z,20.38
2023-02-04T13:16:58.861Z,19.48
2023-02-04T13:19:25.121Z,20.20
2023-02-04T13:21:51.503Z,23.58
2023-02-04T13:24:17.796Z,23.27
2023-02-04T13:26:44.048Z,18.35
2023-02-04T13:29:10.286Z,21.25
2023-02-04T13:31:36.593Z,14.93
2023-02-04T13:34:02.886Z,22.02
2023-02-04T13:36:30.246Z,15.27
2023-02-04T13:38:56.824Z,19.30
2023-02-04T13:41:23.041Z,22.17
2023-02-04T13:43:49.358Z,17.20
2023-02-04T13:46:15.619Z,21.80
2023-02-04T13:48:41.861Z,20.73
2023-02-04T13:51:08.058Z,18.33
2023-02-04T13:53:34.490Z,19.20
2023-02-04T13:56:01.573Z,22.20
2023-02-04T13:58:27.935Z,16.70
2023-02-04T14:00:57.551Z,19.05
2023-02-04T14:03:27.155Z,23.58
2023-02-04T14:05:53.857Z,18.27
2023-02-04T14:08:20.341Z,18.50
2023-02-04T14:10:47.013Z,12.05
2023-02-04T14:13:13.227Z,19.17
2023-02-04T14:15:41.465Z,17.20
2023-02-04T14:18:08.453Z,15.25
2023-02-04T14:20:35.036Z,19.42
2023-02-04T14:23:01.733Z,18.50
2023-02-04T14:25:28.251Z,17.63
2023-02-04T14:27:56.768Z,16.65
2023-02-04T14:30:25.766Z,17.10
2023-02-04T14:32:51.993Z,17.48
2023-02-04T14:35:18.442Z,20.20
2023-02-04T14:37:44.806Z,20.52
2023-02-04T14:40:12.562Z,16.65
2023-02-04T14:42:38.868Z,21.33
2023-02-04T14:45:05.798Z,14.93
2023-02-04T14:47:32.485Z,17.83
2023-02-04T14:49:58.778Z,18.73
2023-02-04T14:52:24.981Z,16.58
2023-02-04T14:54:51.287Z,14.43
2023-02-04T14:57:17.496Z,13.80
2023-02-04T14:59:43.722Z,19.42
2023-02-04T15:02:10.325Z,14.40
2023-02-04T15:04:36.638Z,17.75
2023-02-04T15:07:03.287Z,14.68
2023-02-04T15:09:29.573Z,17.73
2023-02-04T15:11:56.012Z,13.68
2023-02-04T15:14:22.243Z,20.25
2023-02-04T15:16:48.657Z,19.05
2023-02-04T15:19:16.044Z,16.60
2023-02-04T15:21:42.583Z,15.50
2023-02-04T15:24:08.800Z,15.48
2023-02-04T15:26:35.251Z,21.90
2023-02-04T15:29:01.730Z,16.63
2023-02-04T15:31:28.185Z,18.70
2023-02-04T15:33:54.476Z,17.90
2023-02-04T15:36:20.837Z,18.75
2023-02-04T15:38:47.061Z,18.73
2023-02-04T15:41:13.296Z,16.42
2023-02-04T15:43:39.547Z,13.20
2023-02-04T15:46:05.782Z,14.27
2023-02-04T15:48:32.244Z,8.88
2023-02-04T15:50:58.505Z,15.57
2023-02-04T15:53:24.768Z,13.50
2023-02-04T15:55:51.005Z,16.15
2023-02-04T15:58:17.282Z,16.02
2023-02-04T16:00:43.491Z,14.45
2023-02-04T16:03:09.733Z,16.48
2023-02-04T16:05:35.954Z,13.93
2023-02-04T16:08:02.180Z,17.98
2023-02-04T16:10:28.474Z,15.73
2023-02-04T16:12:58.645Z,15.27
2023-02-04T16:15:25.160Z,18.60
2023-02-04T16:17:51.444Z,13.70
2023-02-04T16:20:17.950Z,15.25
2023-02-04T16:22:44.222Z,19.30
2023-02-04T16:25:10.760Z,18.23
2023-02-04T16:27:36.968Z,19.70
2023-02-04T16:30:03.899Z,13.63
2023-02-04T16:32:33.395Z,16.88
2023-02-04T16:35:00.412Z,20.20
2023-02-04T16:37:27.282Z,21.10
2023-02-04T16:39:53.515Z,20.33
2023-02-04T16:42:19.825Z,14.52
2023-02-04T16:44:46.020Z,19.00
2023-02-04T16:47:12.264Z,17.70
2023-02-04T16:49:38.553Z,17.60
2023-02-04T16:52:05.068Z,19.90
2023-02-04T16:54:31.630Z,13.05
2023-02-04T16:57:00.118Z,20.33
2023-02-04T16:59:27.449Z,19.05
2023-02-04T17:01:54.041Z,15.55
2023-02-04T17:04:20.261Z,23.90
2023-02-04T17:06:46.515Z,18.13
2023-02-04T17:09:12.780Z,18.63
2023-02-04T17:11:39.122Z,17.60
2023-02-04T17:14:06.839Z,19.33
2023-02-04T17:16:33.112Z,24.08
2023-02-04T17:18:59.354Z,23.05
2023-02-04T17:21:26.504Z,19.10
2023-02-04T17:23:52.713Z,25.25
2023-02-04T17:26:21.629Z,19.90
2023-02-04T17:28:50.597Z,24.38
2023-02-04T17:31:16.915Z,25.02
2023-02-04T17:33:43.222Z,20.02
2023-02-04T17:36:10.037Z,23.30
2023-02-04T17:38:36.279Z,21.45
2023-02-04T17:41:02.599Z,23.13
2023-02-04T17:43:28.865Z,24.02
2023-02-04T17:45:55.200Z,16.80
2023-02-04T17:48:21.429Z,19.05
2023-02-04T17:50:47.696Z,18.45
2023-02-04T17:53:13.902Z,14.98
2023-02-04T17:55:40.149Z,19.60
2023-02-04T17:58:17.803Z,16.42
2023-02-04T18:00:44.980Z,13.90
2023-02-04T18:03:12.740Z,19.92
2023-02-04T18:05:42.938Z,29.40
2023-02-04T18:08:16.496Z,21.23
2023-02-04T18:10:44.349Z,19.80
2023-02-04T18:13:15.314Z,20.42
2023-02-04T18:15:43.791Z,19.33
2023-02-04T18:18:10.009Z,21.52
2023-02-04T18:20:36.220Z,24.73
2023-02-04T18:23:03.484Z,21.25
2023-02-04T18:25:29.707Z,22.27
2023-02-04T18:27:56.272Z,24.25
2023-02-04T18:30:26.159Z,19.92
2023-02-04T18:32:54.240Z,26.70
2023-02-04T18:35:25.538Z,25.08
2023-02-04T18:37:52.371Z,23.00
2023-02-04T18:40:24.038Z,23.75
2023-02-04T18:42:54.812Z,22.77
2023-02-04T18:45:25.202Z,24.85
2023-02-04T18:47:55.856Z,26.35
2023-02-04T18:50:26.418Z,27.83
2023-02-04T18:52:52.618Z,19.93
2023-02-04T18:55:23.785Z,21.55
2023-02-04T18:57:49.981Z,27.85
2023-02-04T19:00:16.226Z,27.13
2023-02-04T19:02:47.545Z,20.92
2023-02-04T19:05:19.622Z,21.33
2023-02-04T19:07:45.807Z,26.55
2023-02-04T19:10:25.644Z,31.42
2023-02-04T19:12:52.729Z,25.52
2023-02-04T19:15:36.947Z,20.45
2023-02-04T19:18:09.325Z,27.20
2023-02-04T19:20:35.558Z,20.13
2023-02-04T19:23:01.746Z,20.20
2023-02-04T19:25:36.543Z,18.98
2023-02-04T19:28:14.227Z,19.70
2023-02-04T19:30:43.744Z,19.55
2023-02-04T19:33:14.173Z,21.55
2023-02-04T19:35:43.112Z,34.28
2023-02-04T19:38:25.973Z,23.05
2023-02-04T19:40:53.011Z,29.23
2023-02-04T19:43:21.960Z,23.67
2023-02-04T19:45:50.747Z,19.75
2023-02-04T19:48:21.480Z,25.02
2023-02-04T19:50:47.877Z,17.88
2023-02-04T19:53:22.222Z,21.27
2023-02-04T19:55:50.218Z,26.42
2023-02-04T19:58:23.509Z,21.35
2023-02-04T20:00:56.968Z,24.10
2023-02-04T20:03:27.517Z,23.70
2023-02-04T20:05:54.901Z,18.48
2023-02-04T20:08:32.964Z,20.50
2023-02-04T20:10:59.571Z,23.58
2023-02-04T20:13:26.890Z,21.70
2023-02-04T20:15:55.983Z,21.95
2023-02-04T20:18:26.178Z,22.27
2023-02-04T20:20:54.742Z,25.00
2023-02-04T20:23:32.169Z,26.55
2023-02-04T20:25:59.894Z,15.70
2023-02-04T20:28:35.064Z,21.85
2023-02-04T20:31:02.162Z,17.17
2023-02-04T20:33:48.947Z,21.65
2023-02-04T20:36:15.119Z,20.00
2023-02-04T20:38:41.386Z,17.52
2023-02-04T20:41:19.593Z,23.05
2023-02-04T20:43:45.934Z,21.20
2023-02-04T20:46:19.632Z,16.65
2023-02-04T20:48:46.121Z,27.20
2023-02-04T20:51:22.193Z,20.45
2023-02-04T20:53:53.186Z,21.88
2023-02-04T20:56:29.752Z,20.80
2023-02-04T20:59:11.579Z,22.75
2023-02-04T21:01:39.114Z,27.00
2023-02-04T21:04:24.145Z,23.27
2023-02-04T21:06:50.862Z,26.95
2023-02-04T21:09:24.478Z,26.67
2023-02-04T21:11:51.307Z,19.90
2023-02-04T21:14:17.702Z,24.80
2023-02-04T21:16:43.953Z,29.98
2023-02-04T21:19:10.204Z,27.58
2023-02-04T21:21:36.475Z,29.85
2023-02-04T21:24:02.675Z,18.85
2023-02-04T21:26:28.882Z,24.80
2023-02-04T21:28:55.073Z,21.98
2023-02-04T21:31:21.560Z,24.05
2023-02-04T21:33:47.903Z,25.85
2023-02-04T21:36:14.116Z,26.05
2023-02-04T21:38:40.345Z,26.45
2023-02-04T21:41:06.588Z,28.30
2023-02-04T21:43:32.815Z,22.20
2023-02-04T21:45:59.086Z,17.65
2023-02-04T21:48:25.296Z,26.98
2023-02-04T21:50:51.658Z,24.20
2023-02-04T21:53:17.900Z,20.58
2023-02-04T21:55:44.105Z,21.70
2023-02-04T21:58:10.337Z,22.70
2023-02-04T22:00:36.654Z,27.27
2023-02-04T22:03:02.906Z,19.83
2023-02-04T22:05:29.150Z,21.13
2023-02-04T22:07:55.406Z,22.67
2023-02-04T22:10:23.320Z,24.10
2023-02-04T22:12:49.884Z,23.02
2023-02-04T22:15:16.866Z,23.02
2023-02-04T22:17:43.688Z,29.25
2023-02-04T22:20:10.376Z,26.77
2023-02-04T22:22:36.724Z,26.02
2023-02-04T22:25:03.075Z,25.98
2023-02-04T22:27:29.402Z,22.83
2023-02-04T22:29:56.765Z,27.80
2023-02-04T22:32:23.713Z,27.38
2023-02-04T22:34:49.962Z,27.23
2023-02-04T22:37:16.182Z,24.08
2023-02-04T22:39:42.480Z,21.10
2023-02-04T22:42:08.731Z,29.05
2023-02-04T22:44:34.965Z,27.75
2023-02-04T22:47:01.191Z,25.92
2023-02-04T22:49:27.454Z,27.77
2023-02-04T22:51:53.656Z,24.58
2023-02-04T22:54:19.869Z,64.25
2023-02-04T22:56:46.069Z,36.05
2023-02-04T22:59:12.384Z,22.63
2023-02-04T23:01:38.600Z,27.33
2023-02-04T23:04:04.839Z,28.58
2023-02-04T23:06:31.045Z,22.52
2023-02-04T23:08:57.233Z,28.67
2023-02-04T23:11:24.720Z,35.78
2023-02-04T23:13:50.925Z,24.60
2023-02-04T23:16:18.755Z,29.00
2023-02-04T23:18:45.087Z,21.38
2023-02-04T23:21:11.395Z,22.83
2023-02-04T23:23:37.752Z,26.10
2023-02-04T23:26:04.641Z,27.27
2023-02-04T23:28:31.163Z,28.02
2023-02-04T23:30:57.587Z,30.10
2023-02-04T23:33:23.893Z,26.65
2023-02-04T23:35:50.150Z,22.85
2023-02-04T23:38:16.361Z,23.55
2023-02-04T23:40:42.573Z,33.03
2023-02-04T23:43:10.776Z,23.67
2023-02-04T23:45:37.350Z,28.90
2023-02-04T23:48:03.888Z,26.15
2023-02-04T23:50:30.080Z,24.63
2023-02-04T23:52:56.330Z,20.58
2023-02-04T23:55:22.646Z,26.08
2023-02-04T23:57:51.762Z,26.15
